Time;durP1;ratioP1;P1;durP2;ratioP2;P2;SDS_P1;SDS_P2;PMS_P1;PMS_P2;Temp;Humidity;BMP_temperature;BMP_pressure;BME280_temperature;BME280_humidity;BME280_pressure;Samples;Min_cycle;Max_cycle;Signal;HPM_P1;HPM_P2
2021/03/21 00:02:01;;;;;;;6.70;4.25;;;3.80;99.90;;;;;;5061473;28;20199;-80
2021/03/21 00:04:27;;;;;;;4.18;3.55;;;3.80;99.90;;;;;;5061986;28;20230;-81
2021/03/21 00:06:53;;;;;;;6.22;4.43;;;3.90;99.90;;;;;;5060687;28;20245;-81
2021/03/21 00:09:19;;;;;;;6.15;4.57;;;3.90;99.90;;;;;;5061538;28;20207;-82
2021/03/21 00:11:46;;;;;;;4.50;4.07;;;4.00;99.90;;;;;;5061895;28;20206;-79
2021/03/21 00:14:12;;;;;;;7.05;4.28;;;3.80;99.90;;;;;;5061216;28;20199;-80
2021/03/21 00:16:39;;;;;;;3.95;3.65;;;3.80;99.90;;;;;;5061553;28;20227;-80
2021/03/21 00:19:07;;;;;;;5.65;4.30;;;3.80;99.90;;;;;;5060782;28;20223;-80
2021/03/21 00:21:34;;;;;;;4.78;4.30;;;3.90;99.90;;;;;;5070919;28;20191;-80
2021/03/21 00:24:00;;;;;;;5.95;4.60;;;3.80;99.90;;;;;;5079079;28;20206;-81
2021/03/21 00:26:27;;;;;;;4.78;3.92;;;3.80;99.90;;;;;;5078202;28;20219;-78
2021/03/21 00:28:54;;;;;;;5.43;3.80;;;3.80;99.90;;;;;;5079290;28;20221;-77
2021/03/21 00:31:20;;;;;;;4.40;4.00;;;3.80;99.90;;;;;;5077787;28;20206;-78
2021/03/21 00:33:46;;;;;;;9.88;4.57;;;3.80;99.90;;;;;;5077403;28;20210;-80
2021/03/21 00:36:14;;;;;;;4.68;4.15;;;3.90;99.90;;;;;;5073830;28;20223;-78
2021/03/21 00:38:43;;;;;;;6.53;5.05;;;3.90;99.90;;;;;;5073409;28;20223;-78
2021/03/21 00:41:11;;;;;;;9.25;5.10;;;3.90;99.90;;;;;;5074853;28;20242;-79
2021/03/21 00:43:37;;;;;;;5.85;4.57;;;3.90;99.90;;;;;;5070619;28;20210;-80
2021/03/21 00:46:05;;;;;;;7.30;4.35;;;3.90;99.90;;;;;;5071991;28;20603;-78
2021/03/21 00:48:34;;;;;;;6.55;4.72;;;3.90;99.90;;;;;;5069817;28;20203;-78
2021/03/21 00:51:00;;;;;;;5.40;4.90;;;3.90;99.90;;;;;;5072788;28;20207;-78
2021/03/21 00:53:27;;;;;;;5.38;4.78;;;4.00;99.90;;;;;;5070457;28;20202;-78
2021/03/21 00:55:53;;;;;;;7.57;6.03;;;3.60;99.90;;;;;;5071247;28;20227;-79
2021/03/21 00:58:20;;;;;;;8.48;6.28;;;4.00;99.90;;;;;;5072260;28;20218;-78
2021/03/21 01:00:48;;;;;;;7.43;6.15;;;3.70;99.90;;;;;;5073564;28;20203;-78
2021/03/21 01:03:15;;;;;;;6.22;5.55;;;4.00;99.90;;;;;;5074112;28;20218;-78
2021/03/21 01:05:44;;;;;;;7.47;5.72;;;3.90;99.90;;;;;;5075075;28;20238;-78
2021/03/21 01:08:17;;;;;;;8.02;5.90;;;3.90;99.90;;;;;;5076493;28;20199;-79
2021/03/21 01:10:44;;;;;;;7.95;6.07;;;3.90;99.90;;;;;;5061305;28;20242;-81
2021/03/21 01:13:10;;;;;;;7.40;5.50;;;4.00;99.90;;;;;;5059259;28;20203;-80
2021/03/21 01:15:37;;;;;;;9.95;7.15;;;4.00;99.90;;;;;;5059511;28;20251;-81
2021/03/21 01:18:04;;;;;;;9.48;6.60;;;4.00;99.90;;;;;;5059568;28;20226;-80
2021/03/21 01:20:31;;;;;;;8.70;6.72;;;3.90;99.90;;;;;;5059174;28;20203;-80
2021/03/21 01:22:57;;;;;;;11.88;7.30;;;3.90;99.90;;;;;;5059069;28;20199;-80
2021/03/21 01:25:25;;;;;;;12.27;7.03;;;4.00;99.90;;;;;;5058925;28;20632;-80
2021/03/21 01:27:52;;;;;;;7.93;6.97;;;4.00;99.90;;;;;;5058455;28;20202;-80
2021/03/21 01:30:20;;;;;;;12.50;8.00;;;3.90;99.90;;;;;;5060541;28;20202;-80
2021/03/21 01:32:46;;;;;;;8.52;6.95;;;3.80;99.90;;;;;;5058787;28;20203;-79
2021/03/21 01:35:13;;;;;;;9.10;6.78;;;3.80;99.90;;;;;;5058376;28;20246;-79
2021/03/21 01:37:40;;;;;;;10.07;7.93;;;3.80;99.90;;;;;;5060159;28;20225;-80
2021/03/21 01:40:09;;;;;;;10.20;7.32;;;3.70;99.90;;;;;;5059381;28;20203;-81
2021/03/21 01:42:37;;;;;;;9.57;7.65;;;3.70;99.90;;;;;;5059213;28;20210;-80
2021/03/21 01:45:18;;;;;;;11.60;8.23;;;3.70;99.90;;;;;;5058544;28;20223;-80
2021/03/21 01:47:45;;;;;;;9.30;7.78;;;3.70;99.90;;;;;;5058559;28;20273;-80
2021/03/21 01:50:27;;;;;;;9.82;8.43;;;3.70;99.90;;;;;;5059931;28;20206;-81
2021/03/21 01:52:54;;;;;;;10.40;7.47;;;3.70;99.90;;;;;;5060425;28;20183;-80
2021/03/21 01:55:23;;;;;;;13.40;8.70;;;3.70;99.90;;;;;;5058903;28;20257;-80
2021/03/21 01:57:50;;;;;;;12.95;9.00;;;3.60;99.90;;;;;;5061484;28;20226;-79
2021/03/21 02:00:17;;;;;;;11.77;9.68;;;3.60;99.90;;;;;;5059616;28;20202;-79
2021/03/21 02:02:43;;;;;;;14.77;10.02;;;3.50;99.90;;;;;;5063262;28;20207;-80
2021/03/21 02:05:10;;;;;;;13.52;10.15;;;3.60;99.90;;;;;;5074403;28;20214;-79
2021/03/21 02:08:11;;;;;;;12.45;9.63;;;3.50;99.90;;;;;;5077236;28;20194;-78
2021/03/21 02:10:44;;;;;;;17.10;11.25;;;3.50;99.90;;;;;;5059900;28;20191;-80
2021/03/21 02:13:19;;;;;;;13.55;11.55;;;3.70;99.90;;;;;;5057945;28;20187;-79
2021/03/21 02:15:51;;;;;;;13.30;10.40;;;3.50;99.90;;;;;;5057596;28;20230;-79
2021/03/21 02:18:26;;;;;;;13.48;10.35;;;3.50;99.90;;;;;;5059258;28;20211;-79
2021/03/21 02:21:19;;;;;;;17.73;11.63;;;3.50;99.90;;;;;;5057558;28;20195;-79
2021/03/21 02:24:10;;;;;;;17.05;11.68;;;3.50;99.90;;;;;;5057554;28;20194;-79
2021/03/21 02:26:54;;;;;;;17.88;12.40;;;3.40;99.90;;;;;;5060680;28;20222;-78
2021/03/21 02:29:36;;;;;;;16.08;11.75;;;3.40;99.90;;;;;;5059419;28;20538;-79
2021/03/21 02:32:08;;;;;;;17.63;11.20;;;3.40;99.90;;;;;;5058932;28;20187;-80
2021/03/21 02:34:46;;;;;;;16.83;12.25;;;3.40;99.90;;;;;;5058189;28;20194;-81
2021/03/21 02:37:19;;;;;;;17.73;12.43;;;3.40;99.90;;;;;;5062245;28;20194;-80
2021/03/21 02:39:51;;;;;;;18.42;12.45;;;3.40;99.90;;;;;;5074304;28;20301;-78
2021/03/21 02:42:21;;;;;;;16.75;11.80;;;3.40;99.90;;;;;;5077153;28;20172;-79
2021/03/21 02:44:53;;;;;;;19.52;12.20;;;3.50;99.90;;;;;;5076885;28;20183;-79
2021/03/21 02:47:24;;;;;;;16.52;12.02;;;3.50;99.90;;;;;;5068990;28;20634;-80
2021/03/21 02:49:52;;;;;;;13.90;10.93;;;3.50;99.90;;;;;;5077630;28;20187;-80
2021/03/21 02:52:23;;;;;;;16.60;12.55;;;3.50;99.90;;;;;;5076444;28;20202;-80
2021/03/21 02:54:56;;;;;;;16.13;11.30;;;3.50;99.90;;;;;;5074726;28;20191;-80
2021/03/21 02:57:25;;;;;;;15.70;12.80;;;3.60;99.90;;;;;;5065224;28;20183;-80
2021/03/21 02:59:54;;;;;;;16.63;12.52;;;3.60;99.90;;;;;;5062044;28;20203;-80
2021/03/21 03:02:24;;;;;;;16.50;12.05;;;3.60;99.90;;;;;;5061260;28;20235;-81
2021/03/21 03:04:57;;;;;;;17.05;10.60;;;3.70;99.90;;;;;;5060906;28;20206;-81
2021/03/21 03:07:32;;;;;;;14.52;11.70;;;3.80;99.90;;;;;;5065534;23;20606;-84
2021/03/21 03:10:04;;;;;;;16.27;12.50;;;3.60;99.90;;;;;;5039433;28;20198;-84
2021/03/21 03:12:33;;;;;;;18.40;12.50;;;3.70;99.90;;;;;;5039336;28;20631;-85
2021/03/21 03:15:04;;;;;;;19.15;12.18;;;3.70;99.90;;;;;;5039769;28;20203;-85
2021/03/21 03:17:38;;;;;;;18.08;11.25;;;3.60;99.90;;;;;;5041782;28;20239;-85
2021/03/21 03:20:10;;;;;;;15.73;11.43;;;3.60;99.90;;;;;;5043303;28;20215;-85
2021/03/21 03:22:41;;;;;;;20.95;11.93;;;3.60;99.90;;;;;;5041800;28;20597;-85
2021/03/21 03:25:18;;;;;;;16.92;11.88;;;3.60;99.90;;;;;;5041091;28;20226;-84
2021/03/21 03:27:56;;;;;;;17.40;11.57;;;3.60;99.90;;;;;;5041286;28;20194;-84
2021/03/21 03:30:27;;;;;;;15.25;10.73;;;3.70;99.90;;;;;;5053627;28;20538;-84
2021/03/21 03:32:53;;;;;;;16.75;11.65;;;3.70;99.90;;;;;;5056970;28;20188;-84
2021/03/21 03:35:21;;;;;;;17.67;11.38;;;3.90;99.90;;;;;;5045572;28;20211;-84
2021/03/21 03:37:48;;;;;;;19.13;11.45;;;3.70;99.90;;;;;;5048255;28;20709;-85
2021/03/21 03:40:15;;;;;;;19.23;12.65;;;3.70;99.90;;;;;;5054283;28;20215;-85
2021/03/21 03:42:46;;;;;;;20.95;12.27;;;3.80;99.90;;;;;;5051074;28;20258;-85
2021/03/21 03:45:21;;;;;;;18.13;11.40;;;3.70;99.90;;;;;;5043251;28;20323;-84
2021/03/21 03:47:58;;;;;;;14.50;10.35;;;3.80;99.90;;;;;;5052679;28;20218;-84
2021/03/21 03:50:37;;;;;;;18.77;11.75;;;3.80;99.90;;;;;;5055063;28;20199;-85
2021/03/21 03:53:11;;;;;;;12.57;10.02;;;3.80;99.90;;;;;;5041761;28;20237;-85
2021/03/21 03:55:45;;;;;;;14.80;9.38;;;3.90;99.90;;;;;;5039274;28;20714;-84
2021/03/21 03:58:19;;;;;;;16.65;10.73;;;3.90;99.90;;;;;;5037918;28;20639;-85
2021/03/21 04:00:52;;;;;;;14.48;11.30;;;3.90;99.90;;;;;;5037999;28;20349;-85
2021/03/21 04:03:29;;;;;;;16.42;11.55;;;3.90;99.90;;;;;;5038593;28;20271;-85
2021/03/21 04:05:57;;;;;;;16.63;10.73;;;3.80;99.90;;;;;;5038044;28;20243;-85
2021/03/21 04:08:29;;;;;;;15.70;10.75;;;3.90;99.90;;;;;;5038056;28;20203;-85
2021/03/21 04:11:01;;;;;;;15.18;10.18;;;3.90;99.90;;;;;;5037611;28;20691;-85
2021/03/21 04:13:34;;;;;;;11.10;8.60;;;3.90;99.90;;;;;;5038118;28;20184;-84
2021/03/21 04:16:01;;;;;;;15.43;10.48;;;3.90;99.90;;;;;;5041816;28;20270;-84
2021/03/21 04:18:32;;;;;;;14.63;9.20;;;4.00;99.90;;;;;;5051221;28;20223;-85
2021/03/21 04:21:06;;;;;;;11.40;8.90;;;4.00;99.90;;;;;;5051902;28;20195;-85
2021/03/21 04:23:37;;;;;;;10.68;8.10;;;4.10;99.90;;;;;;5051370;28;20195;-85
2021/03/21 04:26:08;;;;;;;12.52;9.30;;;4.10;99.90;;;;;;5049026;28;20227;-85
2021/03/21 04:28:41;;;;;;;12.73;8.20;;;4.10;99.90;;;;;;5048578;28;20184;-85
2021/03/21 04:31:10;;;;;;;10.93;8.93;;;4.10;99.90;;;;;;5046802;28;20670;-85
2021/03/21 04:33:41;;;;;;;12.32;9.15;;;4.10;99.90;;;;;;5039319;28;20203;-85
2021/03/21 04:36:13;;;;;;;11.57;8.10;;;4.10;99.90;;;;;;5039317;28;20228;-85
2021/03/21 04:38:43;;;;;;;10.52;7.30;;;4.10;99.90;;;;;;5038297;28;20674;-85
2021/03/21 04:41:13;;;;;;;13.68;9.43;;;4.10;99.90;;;;;;5037609;28;20217;-85
2021/03/21 04:43:45;;;;;;;12.75;8.73;;;4.00;99.90;;;;;;5037591;28;20200;-85
2021/03/21 04:46:16;;;;;;;14.63;9.25;;;4.00;99.90;;;;;;5037327;28;20273;-85
2021/03/21 04:48:43;;;;;;;15.95;9.15;;;4.00;99.90;;;;;;5038307;28;20242;-85
2021/03/21 04:51:15;;;;;;;13.57;8.57;;;4.00;99.90;;;;;;5040756;28;20211;-85
2021/03/21 04:53:46;;;;;;;11.43;8.45;;;4.00;99.90;;;;;;5048994;28;20211;-85
2021/03/21 04:56:19;;;;;;;11.75;8.90;;;4.00;99.90;;;;;;5042260;28;20224;-85
2021/03/21 04:58:49;;;;;;;14.32;8.77;;;4.00;99.90;;;;;;5040274;28;20212;-85
2021/03/21 05:01:19;;;;;;;12.05;8.63;;;4.00;99.90;;;;;;5039840;28;20234;-85
2021/03/21 05:03:53;;;;;;;13.63;9.05;;;4.00;99.90;;;;;;5040404;28;20218;-85
2021/03/21 05:06:25;;;;;;;11.50;8.05;;;4.10;99.90;;;;;;5037853;28;20247;-85
2021/03/21 05:09:04;;;;;;;11.82;8.52;;;4.10;99.90;;;;;;5037549;28;20615;-85
2021/03/21 05:11:37;;;;;;;8.55;6.03;;;4.10;99.90;;;;;;5036845;28;20187;-85
2021/03/21 05:14:12;;;;;;;10.82;7.80;;;4.20;99.90;;;;;;5037025;28;20215;-85
2021/03/21 05:16:59;;;;;;;8.02;6.47;;;4.20;99.90;;;;;;5036015;28;20729;-85
2021/03/21 05:19:32;;;;;;;10.55;6.95;;;4.30;99.90;;;;;;5036132;28;20674;-85
2021/03/21 05:22:05;;;;;;;9.60;6.53;;;4.20;99.90;;;;;;5035745;28;20192;-86
2021/03/21 05:24:38;;;;;;;7.75;6.22;;;4.30;99.90;;;;;;5037495;28;20285;-85
2021/03/21 05:27:09;;;;;;;9.90;6.68;;;4.40;99.90;;;;;;5036587;28;20228;-85
2021/03/21 05:29:46;;;;;;;8.05;5.45;;;4.30;99.90;;;;;;5037368;28;20552;-85
2021/03/21 05:32:14;;;;;;;7.13;6.30;;;4.30;99.90;;;;;;5036682;28;20598;-85
2021/03/21 05:34:42;;;;;;;6.70;6.00;;;4.40;99.90;;;;;;5036602;28;20208;-85
2021/03/21 05:37:21;;;;;;;6.40;5.20;;;4.40;99.90;;;;;;5038734;28;20227;-86
2021/03/21 05:39:57;;;;;;;7.07;4.60;;;4.40;99.90;;;;;;5055831;28;20218;-85
2021/03/21 05:42:46;;;;;;;8.05;4.72;;;4.50;99.90;;;;;;5053490;28;20191;-85
2021/03/21 05:45:54;;;;;;;7.20;5.45;;;4.40;99.90;;;;;;5042682;28;20487;-85
2021/03/21 05:49:00;;;;;;;4.70;4.30;;;4.50;99.90;;;;;;5007286;28;20203;-85
2021/03/21 05:52:06;;;;;;;6.00;4.85;;;4.60;99.90;;;;;;4943141;29;20187;-86
2021/03/21 05:54:45;;;;;;;5.00;4.35;;;4.50;99.90;;;;;;5042456;28;20199;-85
2021/03/21 05:57:58;;;;;;;4.72;4.10;;;4.60;99.90;;;;;;5040356;28;20234;-85
2021/03/21 06:00:55;;;;;;;4.60;4.10;;;4.60;99.90;;;;;;5038929;28;20654;-85
2021/03/21 06:03:50;;;;;;;5.70;4.50;;;4.60;99.90;;;;;;5038819;28;20188;-85
2021/03/21 06:06:59;;;;;;;5.28;4.68;;;4.60;99.90;;;;;;5009163;28;20330;-85
2021/03/21 06:09:44;;;;;;;4.45;3.60;;;4.70;99.90;;;;;;5039702;28;20572;-85
2021/03/21 06:12:26;;;;;;;5.50;4.55;;;4.70;99.90;;;;;;5038879;28;20251;-85
2021/03/21 06:15:37;;;;;;;6.15;4.57;;;4.60;99.90;;;;;;5038530;28;20199;-84
2021/03/21 06:18:13;;;;;;;4.45;3.47;;;4.60;99.90;;;;;;5038370;28;20223;-85
2021/03/21 06:21:13;;;;;;;4.18;3.78;;;4.60;99.90;;;;;;5038074;28;20187;-85
2021/03/21 06:23:56;;;;;;;5.50;4.32;;;4.60;99.90;;;;;;5038084;28;20210;-85
2021/03/21 06:26:33;;;;;;;5.43;4.47;;;4.70;99.90;;;;;;5040024;28;20223;-84
2021/03/21 06:29:28;;;;;;;8.18;5.00;;;4.70;99.90;;;;;;5037286;28;20222;-85
2021/03/21 06:32:15;;;;;;;6.10;4.53;;;4.70;99.90;;;;;;5038180;28;20191;-85
2021/03/21 06:34:48;;;;;;;6.95;4.90;;;4.70;99.90;;;;;;5038116;28;20924;-85
2021/03/21 06:37:38;;;;;;;5.80;4.53;;;4.70;99.90;;;;;;5037308;28;20863;-84
2021/03/21 06:40:38;;;;;;;5.60;4.55;;;4.70;99.90;;;;;;5038258;28;20199;-84
2021/03/21 06:43:36;;;;;;;5.97;4.85;;;4.70;99.90;;;;;;5017947;28;20207;-84
2021/03/21 06:46:21;;;;;;;4.88;3.78;;;4.80;99.90;;;;;;5038524;28;20247;-85
2021/03/21 06:49:11;;;;;;;4.43;3.90;;;4.80;99.90;;;;;;5040119;28;20188;-85
2021/03/21 06:51:49;;;;;;;5.88;4.13;;;4.90;99.90;;;;;;5053480;28;20199;-84
2021/03/21 06:54:31;;;;;;;4.80;4.10;;;4.90;99.90;;;;;;5055427;28;20452;-84
2021/03/21 06:57:32;;;;;;;4.97;4.07;;;5.20;99.90;;;;;;5054446;28;20445;-84
2021/03/21 07:00:40;;;;;;;5.72;3.88;;;5.00;99.90;;;;;;5015413;28;20231;-84
2021/03/21 07:03:46;;;;;;;3.95;3.38;;;5.00;99.90;;;;;;5055712;28;20203;-84
2021/03/21 07:06:54;;;;;;;6.65;4.78;;;5.00;99.90;;;;;;5055519;28;20219;-84
2021/03/21 07:09:55;;;;;;;4.70;3.97;;;5.00;99.90;;;;;;5056157;28;20176;-84
2021/03/21 07:12:50;;;;;;;3.30;3.00;;;5.10;99.90;;;;;;5053822;28;20192;-85
2021/03/21 07:15:41;;;;;;;4.50;3.20;;;4.90;99.90;;;;;;5055856;28;20195;-83
2021/03/21 07:18:41;;;;;;;4.30;3.88;;;5.10;99.90;;;;;;5052999;28;20235;-84
2021/03/21 07:21:30;;;;;;;5.35;4.20;;;5.30;99.90;;;;;;5054610;28;20180;-84
2021/03/21 07:24:22;;;;;;;3.28;2.97;;;5.30;99.90;;;;;;5055341;28;20188;-85
2021/03/21 07:27:25;;;;;;;3.58;2.35;;;5.40;99.90;;;;;;5054084;28;20220;-85
2021/03/21 07:29:54;;;;;;;5.30;3.40;;;5.40;99.90;;;;;;5049836;28;20234;-85
2021/03/21 07:32:43;;;;;;;5.50;3.75;;;5.40;99.90;;;;;;5049281;28;20208;-85
2021/03/21 07:35:29;;;;;;;4.38;3.08;;;5.40;99.90;;;;;;5052586;28;20195;-85
2021/03/21 07:38:03;;;;;;;4.28;2.90;;;5.40;99.90;;;;;;5053720;28;20192;-84
2021/03/21 07:40:38;;;;;;;2.42;2.10;;;5.40;99.90;;;;;;5053825;28;20275;-84
2021/03/21 07:43:28;;;;;;;4.57;2.85;;;5.50;99.90;;;;;;5053045;28;20211;-84
2021/03/21 07:46:20;;;;;;;3.60;2.30;;;5.40;99.90;;;;;;5053985;28;20254;-84
2021/03/21 07:49:16;;;;;;;3.38;2.58;;;5.50;99.90;;;;;;5057232;28;20172;-84
2021/03/21 07:51:59;;;;;;;2.40;2.20;;;5.50;99.90;;;;;;5055404;28;20188;-84
2021/03/21 07:54:34;;;;;;;3.22;2.53;;;5.60;99.90;;;;;;5056547;28;20201;-84
2021/03/21 07:57:10;;;;;;;3.05;2.75;;;5.60;99.90;;;;;;5055488;28;20223;-85
2021/03/21 07:59:38;;;;;;;3.67;1.90;;;5.70;99.90;;;;;;5050443;28;20310;-84
2021/03/21 08:02:11;;;;;;;2.35;2.15;;;5.80;99.90;;;;;;5047286;28;20250;-84
2021/03/21 08:04:46;;;;;;;2.80;2.25;;;5.80;99.90;;;;;;5046476;28;20207;-85
2021/03/21 08:07:16;;;;;;;3.25;2.50;;;5.90;99.90;;;;;;5042541;28;20701;-85
2021/03/21 08:09:42;;;;;;;2.95;2.10;;;5.80;99.90;;;;;;5041814;28;20442;-85
2021/03/21 08:12:31;;;;;;;2.30;1.85;;;5.90;99.90;;;;;;5042767;28;20208;-85
2021/03/21 08:15:03;;;;;;;3.85;2.13;;;5.90;99.90;;;;;;5041800;28;20219;-84
2021/03/21 08:17:34;;;;;;;2.22;1.98;;;5.90;99.90;;;;;;5042651;28;20235;-85
2021/03/21 08:20:07;;;;;;;2.20;1.83;;;6.10;99.90;;;;;;5051669;28;20208;-85
2021/03/21 08:22:34;;;;;;;1.87;1.57;;;;;;;;;;5053833;28;20532;-85
2021/03/21 08:25:04;;;;;;;2.30;2.10;;;6.00;99.90;;;;;;5046735;28;20481;-85
2021/03/21 08:27:33;;;;;;;1.90;1.70;;;6.00;99.90;;;;;;5055585;28;20241;-84
2021/03/21 08:30:01;;;;;;;1.70;1.60;;;6.10;99.90;;;;;;5059437;28;20279;-85
2021/03/21 08:32:28;;;;;;;2.28;2.03;;;5.70;99.90;;;;;;5060138;28;20218;-85
2021/03/21 08:35:16;;;;;;;2.13;1.98;;;6.40;99.90;;;;;;5059117;28;20191;-86
2021/03/21 08:37:46;;;;;;;2.08;1.90;;;6.30;99.90;;;;;;5059518;28;20208;-85
2021/03/21 08:40:28;;;;;;;2.85;2.05;;;6.20;99.90;;;;;;5058990;28;20204;-85
2021/03/21 08:43:09;;;;;;;2.80;2.60;;;6.30;99.90;;;;;;5059237;28;20198;-85
2021/03/21 08:45:38;;;;;;;2.85;1.77;;;6.30;99.90;;;;;;5058442;28;20212;-86
2021/03/21 08:48:35;;;;;;;3.72;2.90;;;6.20;99.90;;;;;;5053590;28;20831;-86
2021/03/21 08:51:29;;;;;;;10.35;4.25;;;6.20;99.90;;;;;;5046148;28;20191;-86
2021/03/21 08:53:58;;;;;;;4.97;4.45;;;6.20;99.90;;;;;;5044573;28;20196;-85
2021/03/21 08:56:28;;;;;;;3.38;2.97;;;6.10;99.90;;;;;;5045295;28;20231;-85
2021/03/21 08:59:13;;;;;;;3.40;3.15;;;6.30;99.90;;;;;;5043689;28;20255;-85
2021/03/21 09:01:41;;;;;;;5.72;3.70;;;6.30;99.90;;;;;;5046873;28;20208;-85
2021/03/21 09:04:11;;;;;;;3.92;3.13;;;6.30;99.90;;;;;;5050313;28;20203;-85
2021/03/21 09:06:41;;;;;;;3.45;2.60;;;6.20;99.90;;;;;;5079383;23;20239;-81
2021/03/21 09:09:20;;;;;;;4.53;3.75;;;6.20;99.90;;;;;;5075308;28;20199;-79
2021/03/21 09:11:47;;;;;;;5.00;3.08;;;6.20;99.90;;;;;;5072588;28;20206;-80
2021/03/21 09:14:21;;;;;;;6.93;2.95;;;6.20;99.90;;;;;;5070755;28;20203;-80
2021/03/21 09:16:59;;;;;;;5.03;3.50;;;6.20;99.90;;;;;;5072014;28;20238;-80
2021/03/21 09:19:28;;;;;;;5.32;3.45;;;6.10;99.90;;;;;;5076159;28;20226;-79
2021/03/21 09:21:56;;;;;;;9.50;3.47;;;6.10;99.90;;;;;;5072093;28;20203;-80
2021/03/21 09:24:27;;;;;;;5.33;3.20;;;5.90;99.90;;;;;;5070552;28;20508;-81
2021/03/21 09:27:16;;;;;;;6.25;4.05;;;6.10;99.90;;;;;;5063972;28;20497;-80
2021/03/21 09:29:45;;;;;;;10.85;5.32;;;6.10;99.90;;;;;;5049980;28;20199;-80
2021/03/21 09:32:23;;;;;;;6.50;3.70;;;6.00;99.90;;;;;;5061895;28;20260;-80
2021/03/21 09:35:00;;;;;;;15.05;6.40;;;5.90;99.90;;;;;;5066975;28;20337;-79
2021/03/21 09:37:29;;;;;;;12.15;5.70;;;6.00;99.90;;;;;;5067064;28;20219;-79
2021/03/21 09:40:01;;;;;;;6.35;3.70;;;5.90;99.90;;;;;;5063780;28;20650;-80
2021/03/21 09:42:27;;;;;;;15.48;4.40;;;5.90;99.90;;;;;;5061843;28;20187;-79
2021/03/21 09:44:54;;;;;;;11.90;3.95;;;5.90;99.90;;;;;;5061333;28;20207;-79
2021/03/21 09:47:29;;;;;;;6.03;4.28;;;5.80;99.90;;;;;;5059768;28;20705;-81
2021/03/21 09:50:02;;;;;;;10.82;4.10;;;5.90;99.90;;;;;;5059100;28;20183;-81
2021/03/21 09:52:41;;;;;;;9.23;4.18;;;5.90;99.90;;;;;;5057907;28;20191;-79
2021/03/21 09:55:18;;;;;;;13.32;4.25;;;6.10;99.90;;;;;;5057303;28;20286;-80
2021/03/21 09:58:18;;;;;;;10.98;4.18;;;6.00;99.90;;;;;;5059060;28;20276;-80
2021/03/21 10:00:51;;;;;;;7.18;3.10;;;6.00;99.90;;;;;;5059375;28;20244;-79
2021/03/21 10:03:26;;;;;;;10.40;3.28;;;6.10;99.90;;;;;;5059603;28;20188;-79
2021/03/21 10:06:01;;;;;;;9.40;3.10;;;6.20;99.90;;;;;;5058082;28;20634;-79
2021/03/21 10:08:45;;;;;;;6.90;4.35;;;6.10;99.90;;;;;;5055635;28;20205;-79
2021/03/21 10:11:15;;;;;;;14.48;3.65;;;6.10;99.90;;;;;;5055495;28;20194;-79
2021/03/21 10:13:44;;;;;;;6.00;3.00;;;6.20;99.90;;;;;;5055197;28;20187;-79
2021/03/21 10:16:19;;;;;;;7.85;2.72;;;6.20;99.90;;;;;;5056402;28;20234;-79
2021/03/21 10:18:47;;;;;;;7.80;3.47;;;6.20;99.90;;;;;;5056544;28;20364;-79
2021/03/21 10:21:30;;;;;;;12.65;4.35;;;6.30;99.90;;;;;;5057630;28;20210;-79
2021/03/21 10:24:36;;;;;;;6.20;2.53;;;6.40;99.90;;;;;;5057784;28;20187;-79
2021/03/21 10:27:47;;;;;;;7.50;2.60;;;6.60;99.90;;;;;;5060460;28;20291;-79
2021/03/21 10:30:21;;;;;;;7.05;4.13;;;6.30;99.90;;;;;;5058715;28;20194;-79
2021/03/21 10:32:50;;;;;;;10.65;3.70;;;6.40;99.90;;;;;;5058874;28;20193;-81
2021/03/21 10:35:54;;;;;;;6.72;2.75;;;6.40;99.90;;;;;;5059432;28;20676;-78
2021/03/21 10:38:43;;;;;;;2.42;2.13;;;6.30;99.90;;;;;;5058643;28;20215;-80
2021/03/21 10:41:10;;;;;;;12.93;4.53;;;6.20;99.90;;;;;;5058758;28;20203;-79
2021/03/21 10:43:59;;;;;;;10.73;3.38;;;6.10;99.90;;;;;;5060507;28;20199;-80
2021/03/21 10:46:44;;;;;;;10.48;3.20;;;6.00;99.90;;;;;;5054655;28;20219;-80
2021/03/21 10:49:10;;;;;;;6.53;4.00;;;6.00;99.90;;;;;;5061790;28;20203;-80
2021/03/21 10:52:07;;;;;;;4.00;2.92;;;5.90;99.90;;;;;;5063363;28;20207;-80
2021/03/21 10:54:33;;;;;;;16.30;4.22;;;6.00;99.90;;;;;;5077971;28;20206;-79
2021/03/21 10:57:33;;;;;;;13.50;4.10;;;5.70;99.90;;;;;;5076298;28;20219;-80
2021/03/21 11:00:11;;;;;;;9.93;3.92;;;5.70;99.90;;;;;;5060287;28;20708;-80
2021/03/21 11:02:42;;;;;;;5.32;3.60;;;5.80;99.90;;;;;;5061223;28;20183;-81
2021/03/21 11:05:24;;;;;;;11.60;4.50;;;5.80;99.90;;;;;;5062308;28;20198;-80
2021/03/21 11:08:01;;;;;;;8.02;3.83;;;5.80;99.90;;;;;;5059315;28;20241;-80
2021/03/21 11:10:30;;;;;;;5.90;3.33;;;5.70;99.90;;;;;;5069636;28;20187;-78
2021/03/21 11:13:03;;;;;;;7.68;2.95;;;5.60;99.90;;;;;;5077815;28;20203;-80
2021/03/21 11:15:33;;;;;;;10.13;4.88;;;5.70;99.90;;;;;;5076974;28;20187;-79
2021/03/21 11:18:07;;;;;;;11.82;4.35;;;5.60;99.90;;;;;;5073784;28;20318;-80
2021/03/21 11:20:37;;;;;;;6.47;3.67;;;5.60;99.90;;;;;;5066888;28;20194;-79
2021/03/21 11:23:08;;;;;;;9.00;5.72;;;5.60;99.90;;;;;;5062782;28;20234;-80
2021/03/21 11:25:37;;;;;;;17.08;4.93;;;5.60;99.90;;;;;;5063261;28;20206;-79
2021/03/21 11:28:04;;;;;;;9.30;5.85;;;5.60;99.90;;;;;;5062739;28;20642;-79
2021/03/21 11:30:31;;;;;;;21.20;5.97;;;5.60;99.90;;;;;;5061840;28;20236;-79
2021/03/21 11:33:15;;;;;;;9.88;4.47;;;5.60;99.90;;;;;;5066946;28;20210;-81
2021/03/21 11:35:42;;;;;;;13.48;6.50;;;5.80;99.90;;;;;;5066199;28;20187;-80
2021/03/21 11:38:28;;;;;;;18.80;4.78;;;5.60;99.90;;;;;;5069870;28;20210;-81
2021/03/21 11:40:56;;;;;;;11.48;5.20;;;5.70;99.90;;;;;;5065900;28;20194;-80
2021/03/21 11:43:27;;;;;;;7.38;3.35;;;5.80;99.90;;;;;;5061755;28;20207;-80
2021/03/21 11:45:53;;;;;;;19.70;6.10;;;5.80;99.90;;;;;;5063045;28;20271;-80
2021/03/21 11:48:33;;;;;;;15.15;6.47;;;5.80;99.90;;;;;;5065268;28;20203;-79
2021/03/21 11:51:01;;;;;;;13.27;3.80;;;6.00;99.90;;;;;;5072471;28;20241;-80
2021/03/21 11:53:36;;;;;;;13.57;5.07;;;6.10;99.90;;;;;;5074661;28;20210;-78
2021/03/21 11:56:10;;;;;;;12.23;4.80;;;6.10;99.90;;;;;;5074172;28;20229;-79
2021/03/21 11:58:40;;;;;;;15.15;6.20;;;6.20;99.90;;;;;;5065672;28;20211;-79
2021/03/21 12:01:15;;;;;;;21.17;7.50;;;6.20;99.90;;;;;;5064257;28;20580;-80
2021/03/21 12:03:51;;;;;;;13.90;5.20;;;6.30;99.90;;;;;;5063145;28;20194;-80
2021/03/21 12:06:25;;;;;;;11.48;5.65;;;6.40;99.90;;;;;;5063089;28;20240;-79
2021/03/21 12:08:52;;;;;;;21.98;7.20;;;6.30;99.90;;;;;;5063744;28;20199;-80
2021/03/21 12:11:33;;;;;;;16.50;5.55;;;6.30;99.90;;;;;;5062242;28;20213;-80
2021/03/21 12:14:21;;;;;;;20.48;6.65;;;6.60;99.90;;;;;;5061933;28;20568;-80
2021/03/21 12:16:47;;;;;;;19.38;5.10;;;6.90;99.90;;;;;;5062635;28;20432;-80
2021/03/21 12:19:28;;;;;;;14.55;5.22;;;6.80;99.90;;;;;;5060702;28;20455;-80
2021/03/21 12:21:58;;;;;;;15.32;4.65;;;6.90;99.90;;;;;;5061018;28;20436;-80
2021/03/21 12:24:25;;;;;;;12.77;5.85;;;6.80;99.90;;;;;;5062144;28;20233;-80
2021/03/21 12:26:55;;;;;;;10.98;4.38;;;6.90;99.90;;;;;;5062700;28;20596;-80
2021/03/21 12:29:44;;;;;;;13.90;4.40;;;6.90;99.90;;;;;;5077726;28;20206;-80
2021/03/21 12:32:35;;;;;;;14.38;4.13;;;6.90;99.90;;;;;;5069996;28;20203;-80
2021/03/21 12:35:01;;;;;;;21.98;6.82;;;7.00;99.90;;;;;;5064794;28;20199;-80
2021/03/21 12:37:42;;;;;;;13.85;5.38;;;7.10;99.90;;;;;;5064102;28;20227;-81
2021/03/21 12:40:13;;;;;;;13.70;5.82;;;7.20;99.90;;;;;;5065002;28;20284;-81
2021/03/21 12:42:41;;;;;;;14.25;5.25;;;7.30;99.90;;;;;;5064692;28;20191;-81
2021/03/21 12:45:18;;;;;;;10.65;4.85;;;7.30;99.90;;;;;;5063919;28;20290;-81
2021/03/21 12:47:46;;;;;;;11.63;4.43;;;7.40;99.90;;;;;;5070038;28;20227;-79
2021/03/21 12:50:38;;;;;;;9.93;4.05;;;7.50;99.90;;;;;;5066438;28;20206;-80
2021/03/21 12:53:07;;;;;;;9.93;5.10;;;7.40;99.90;;;;;;5079598;28;20179;-80
2021/03/21 12:55:34;;;;;;;20.75;4.22;;;7.40;99.90;;;;;;5079633;28;20183;-81
2021/03/21 12:58:00;;;;;;;20.05;4.75;;;7.40;99.90;;;;;;5079296;28;20210;-80
2021/03/21 13:00:29;;;;;;;14.90;5.10;;;7.40;99.90;;;;;;5066922;28;20233;-80
2021/03/21 13:02:57;;;;;;;15.68;5.20;;;7.50;99.90;;;;;;5067504;28;20233;-80
2021/03/21 13:05:27;;;;;;;7.93;3.90;;;7.60;99.90;;;;;;5067640;28;20195;-82
2021/03/21 13:07:53;;;;;;;10.85;3.33;;;7.70;99.90;;;;;;5067525;28;20329;-80
2021/03/21 13:10:21;;;;;;;13.80;5.40;;;7.90;99.90;;;;;;5062155;28;20203;-79
2021/03/21 13:12:47;;;;;;;15.60;4.30;;;7.90;99.90;;;;;;5060101;28;20290;-81
2021/03/21 13:15:13;;;;;;;9.07;4.07;;;8.20;99.90;;;;;;5058878;28;20225;-80
2021/03/21 13:17:40;;;;;;;8.55;3.97;;;8.10;99.90;;;;;;5059928;28;20223;-79
2021/03/21 13:20:08;;;;;;;11.23;3.75;;;8.20;99.90;;;;;;5059156;28;20262;-79
2021/03/21 13:22:35;;;;;;;12.38;3.83;;;8.30;99.90;;;;;;5060595;28;20198;-79
2021/03/21 13:25:03;;;;;;;6.75;2.90;;;8.30;99.90;;;;;;5059903;28;20207;-79
2021/03/21 13:27:30;;;;;;;10.70;4.50;;;8.40;99.90;;;;;;5062008;28;20234;-78
2021/03/21 13:29:56;;;;;;;11.13;4.45;;;8.50;99.90;;;;;;5059206;28;20203;-81
2021/03/21 13:32:23;;;;;;;12.05;4.00;;;8.60;99.90;;;;;;5060256;28;20252;-80
2021/03/21 13:34:53;;;;;;;14.18;3.50;;;8.80;99.90;;;;;;5060488;28;20323;-79